Time;durP1;ratioP1;P1;durP2;ratioP2;P2;SDS_P1;SDS_P2;PMS_P1;PMS_P2;Temp;Humidity;BMP_temperature;BMP_pressure;BME280_temperature;BME280_humidity;BME280_pressure;Samples;Min_cycle;Max_cycle;Signal;HPM_P1;HPM_P2
2022/08/27 00:01:40;;;;;;;18.40;11.77;;;18.60;99.90;;;;;;5123167;27;20043;-65
2022/08/27 00:04:07;;;;;;;21.63;13.98;;;18.60;99.90;;;;;;5120567;27;20830;-64
2022/08/27 00:06:35;;;;;;;15.15;11.13;;;18.60;99.90;;;;;;5104253;27;20031;-64
2022/08/27 00:09:04;;;;;;;16.13;9.85;;;18.60;99.90;;;;;;5121706;27;20043;-65
2022/08/27 00:11:32;;;;;;;14.20;10.80;;;18.60;99.90;;;;;;5122924;27;20051;-65
2022/08/27 00:14:00;;;;;;;14.98;10.15;;;18.60;99.90;;;;;;5119307;27;20039;-66
2022/08/27 00:16:35;;;;;;;14.68;9.43;;;18.60;99.90;;;;;;5108081;27;20170;-65
2022/08/27 00:19:03;;;;;;;14.85;10.02;;;18.60;99.90;;;;;;5108638;27;20059;-65
2022/08/27 00:21:31;;;;;;;17.60;10.15;;;18.60;99.90;;;;;;5117311;27;20044;-66
2022/08/27 00:24:00;;;;;;;19.40;10.40;;;18.60;99.90;;;;;;5124686;27;20039;-65
2022/08/27 00:26:28;;;;;;;13.65;10.27;;;18.60;99.90;;;;;;5113804;27;20564;-66
2022/08/27 00:28:55;;;;;;;19.65;10.65;;;18.60;99.90;;;;;;5114105;27;20047;-66
2022/08/27 00:31:23;;;;;;;16.40;10.65;;;18.60;99.90;;;;;;5112977;27;20537;-65
2022/08/27 00:33:54;;;;;;;17.13;9.93;;;18.60;99.90;;;;;;5107892;28;20062;-65
2022/08/27 00:36:23;;;;;;;13.05;9.40;;;18.60;99.90;;;;;;5108053;28;20716;-64
2022/08/27 00:38:50;;;;;;;14.70;9.23;;;18.60;99.90;;;;;;5118290;27;20089;-65
2022/08/27 00:41:21;;;;;;;14.70;9.45;;;18.60;99.90;;;;;;5108133;28;20481;-65
2022/08/27 00:44:00;;;;;;;16.30;9.88;;;18.50;99.90;;;;;;5122362;27;20524;-64
2022/08/27 00:46:50;;;;;;;14.15;10.13;;;18.50;99.90;;;;;;5108191;28;20043;-65
2022/08/27 00:49:22;;;;;;;15.50;10.15;;;18.50;99.90;;;;;;5113509;27;20039;-65
2022/08/27 00:52:01;;;;;;;15.17;9.93;;;18.50;99.90;;;;;;5122369;27;20035;-65
2022/08/27 00:54:29;;;;;;;14.73;9.82;;;18.50;99.90;;;;;;5116216;27;20493;-65
2022/08/27 00:56:58;;;;;;;16.83;10.82;;;18.50;99.90;;;;;;5132740;27;20079;-65
2022/08/27 00:59:31;;;;;;;16.33;11.07;;;18.50;99.90;;;;;;5117588;27;20047;-64
2022/08/27 01:02:17;;;;;;;17.50;10.90;;;18.40;99.90;;;;;;5122774;27;20043;-65
2022/08/27 01:04:50;;;;;;;14.25;10.18;;;18.40;99.90;;;;;;5107548;28;20404;-64
2022/08/27 01:07:18;;;;;;;15.23;10.48;;;18.40;99.90;;;;;;5119952;27;20565;-66
2022/08/27 01:09:48;;;;;;;15.73;10.95;;;18.40;99.90;;;;;;5113814;27;20050;-64
2022/08/27 01:12:16;;;;;;;15.93;11.50;;;18.40;99.90;;;;;;5121027;27;20039;-65
2022/08/27 01:14:45;;;;;;;18.58;11.25;;;18.40;99.90;;;;;;5113670;27;20343;-64
2022/08/27 01:17:14;;;;;;;16.80;11.95;;;18.40;99.90;;;;;;5108981;27;20046;-64
2022/08/27 01:19:47;;;;;;;16.13;11.55;;;18.40;99.90;;;;;;5106867;28;20038;-64
2022/08/27 01:22:26;;;;;;;14.75;11.48;;;18.40;99.90;;;;;;5111625;28;20066;-64
2022/08/27 01:24:57;;;;;;;15.88;10.45;;;18.40;99.90;;;;;;5118763;27;20036;-64
2022/08/27 01:27:27;;;;;;;15.23;10.27;;;18.30;99.90;;;;;;5126459;27;20125;-64
2022/08/27 01:29:55;;;;;;;15.32;10.60;;;18.30;99.90;;;;;;5117505;27;20044;-65
2022/08/27 01:32:27;;;;;;;13.50;10.40;;;18.30;99.90;;;;;;5113672;27;20039;-64
2022/08/27 01:34:56;;;;;;;16.05;11.18;;;18.30;99.90;;;;;;5082540;28;20055;-64
2022/08/27 01:37:25;;;;;;;17.50;11.20;;;18.40;99.90;;;;;;5111829;27;20126;-64
2022/08/27 01:39:55;;;;;;;16.35;10.75;;;18.40;99.90;;;;;;5117662;27;20044;-66
2022/08/27 01:42:32;;;;;;;14.55;11.10;;;18.30;99.90;;;;;;5111260;28;20055;-65
2022/08/27 01:45:02;;;;;;;16.23;10.85;;;18.30;99.90;;;;;;5109972;28;20036;-63
2022/08/27 01:47:33;;;;;;;15.50;10.18;;;18.40;99.90;;;;;;5112534;27;20035;-65
2022/08/27 01:50:07;;;;;;;14.57;10.68;;;18.40;99.90;;;;;;5109265;27;20499;-65
2022/08/27 01:52:35;;;;;;;16.42;11.20;;;18.30;99.90;;;;;;5106815;27;20079;-65
2022/08/27 01:55:05;;;;;;;14.98;10.10;;;18.40;99.90;;;;;;5106291;27;20160;-64
2022/08/27 01:57:36;;;;;;;14.57;9.60;;;18.30;99.90;;;;;;5112970;27;20101;-65
2022/08/27 02:00:08;;;;;;;14.88;9.75;;;18.30;99.90;;;;;;5120203;27;20043;-65
2022/08/27 02:02:39;;;;;;;15.07;9.60;;;18.30;99.90;;;;;;5113873;27;20052;-65
2022/08/27 02:05:07;;;;;;;15.55;10.00;;;18.30;99.90;;;;;;5096558;27;20043;-65
2022/08/27 02:07:37;;;;;;;12.55;9.20;;;18.30;99.90;;;;;;5112103;27;20123;-65
2022/08/27 02:10:06;;;;;;;15.85;10.85;;;18.30;99.90;;;;;;5102778;27;20073;-65
2022/08/27 02:12:33;;;;;;;17.17;11.02;;;18.40;99.90;;;;;;5115704;27;20097;-65
2022/08/27 02:15:01;;;;;;;15.55;11.20;;;18.40;99.90;;;;;;5118589;27;20039;-65
2022/08/27 02:17:29;;;;;;;13.48;9.80;;;18.40;99.90;;;;;;5117772;27;20077;-65
2022/08/27 02:19:56;;;;;;;17.90;9.95;;;18.30;99.90;;;;;;5111725;27;20043;-64
2022/08/27 02:22:23;;;;;;;16.08;11.05;;;18.40;99.90;;;;;;5110132;27;20485;-64
2022/08/27 02:24:51;;;;;;;16.10;10.65;;;18.30;99.90;;;;;;5112427;27;20048;-65
2022/08/27 02:27:20;;;;;;;19.17;12.27;;;18.30;99.90;;;;;;5117743;27;20043;-65
2022/08/27 02:29:47;;;;;;;17.10;11.90;;;18.30;99.90;;;;;;5119301;27;20501;-65
2022/08/27 02:32:16;;;;;;;18.65;11.07;;;18.30;99.90;;;;;;5112620;27;20126;-65
2022/08/27 02:34:59;;;;;;;15.23;11.25;;;18.30;99.90;;;;;;5109589;28;20120;-64
2022/08/27 02:37:26;;;;;;;16.90;11.10;;;18.30;99.90;;;;;;5106447;27;20149;-65
2022/08/27 02:39:54;;;;;;;14.38;10.77;;;18.30;99.90;;;;;;5124302;27;20123;-65
2022/08/27 02:42:21;;;;;;;14.73;10.15;;;18.30;99.90;;;;;;5122672;27;20043;-66
2022/08/27 02:44:49;;;;;;;18.52;10.73;;;18.30;99.90;;;;;;5108815;27;20082;-65
2022/08/27 02:47:16;;;;;;;14.73;11.02;;;18.30;99.90;;;;;;5095975;27;20046;-66
2022/08/27 02:49:43;;;;;;;15.68;10.80;;;18.30;99.90;;;;;;5111648;27;20525;-65
2022/08/27 02:52:11;;;;;;;17.23;10.88;;;18.30;99.90;;;;;;5092580;28;20040;-65
2022/08/27 02:54:39;;;;;;;15.30;10.52;;;18.30;99.90;;;;;;5118910;27;20035;-65
2022/08/27 02:57:06;;;;;;;14.05;9.90;;;18.20;99.90;;;;;;5122801;27;20127;-65
2022/08/27 02:59:34;;;;;;;19.25;11.27;;;18.30;99.90;;;;;;5118065;27;20064;-64
2022/08/27 03:02:02;;;;;;;12.25;8.98;;;18.30;99.90;;;;;;5117990;27;20050;-63
2022/08/27 03:04:29;;;;;;;13.68;8.90;;;18.30;99.90;;;;;;5117085;27;20129;-64
2022/08/27 03:06:57;;;;;;;14.80;10.02;;;18.30;99.90;;;;;;5097227;27;20135;-65
2022/08/27 03:09:24;;;;;;;16.48;10.07;;;18.30;99.90;;;;;;5121180;27;20039;-65
2022/08/27 03:11:52;;;;;;;13.80;9.60;;;18.30;99.90;;;;;;5095685;27;20036;-65
2022/08/27 03:14:20;;;;;;;13.00;9.60;;;18.30;99.90;;;;;;5102768;27;20126;-64
2022/08/27 03:16:47;;;;;;;12.93;9.70;;;18.30;99.90;;;;;;5111548;27;20232;-64
2022/08/27 03:19:14;;;;;;;15.43;9.77;;;18.30;99.90;;;;;;5115542;27;20134;-64
2022/08/27 03:21:50;;;;;;;15.80;10.02;;;18.20;99.90;;;;;;5114633;27;20047;-64
2022/08/27 03:24:21;;;;;;;13.68;9.15;;;18.20;99.90;;;;;;5122033;27;20047;-64
2022/08/27 03:26:48;;;;;;;12.98;8.93;;;18.20;99.90;;;;;;5123044;27;20623;-65
2022/08/27 03:29:20;;;;;;;14.43;9.63;;;18.20;99.90;;;;;;5124163;27;20133;-65
2022/08/27 03:31:47;;;;;;;14.13;9.68;;;18.20;99.90;;;;;;5113660;27;20104;-64
2022/08/27 03:34:14;;;;;;;13.93;9.73;;;18.20;99.90;;;;;;5108927;28;20052;-65
2022/08/27 03:36:47;;;;;;;14.63;9.55;;;18.30;99.90;;;;;;5108071;28;20494;-64
2022/08/27 03:39:15;;;;;;;15.52;10.20;;;18.30;99.90;;;;;;5106438;27;20425;-66
2022/08/27 03:41:43;;;;;;;14.13;9.82;;;18.20;99.90;;;;;;5112888;27;20568;-64
2022/08/27 03:44:24;;;;;;;13.68;9.48;;;18.30;99.90;;;;;;5111140;27;20063;-64
2022/08/27 03:46:52;;;;;;;15.52;10.50;;;18.30;99.90;;;;;;5104912;28;20131;-64
2022/08/27 03:49:21;;;;;;;13.60;9.75;;;18.30;99.90;;;;;;5104228;27;20155;-64
2022/08/27 03:51:51;;;;;;;14.10;10.90;;;18.30;99.90;;;;;;5100178;27;20442;-64
2022/08/27 03:54:18;;;;;;;14.27;10.60;;;18.40;99.90;;;;;;5113711;27;20444;-64
2022/08/27 03:56:46;;;;;;;14.40;10.43;;;18.40;99.90;;;;;;5111806;27;20044;-65
2022/08/27 03:59:14;;;;;;;14.73;9.95;;;18.40;99.90;;;;;;5112396;27;20043;-64
2022/08/27 04:01:43;;;;;;;13.75;10.40;;;18.50;99.90;;;;;;5113217;27;20035;-64
2022/08/27 04:04:11;;;;;;;16.65;11.13;;;18.40;99.90;;;;;;5089895;28;20414;-65
2022/08/27 04:06:40;;;;;;;14.98;10.65;;;18.50;99.90;;;;;;5109177;27;20070;-65
2022/08/27 04:09:07;;;;;;;13.95;11.00;;;18.50;99.90;;;;;;5115037;27;20043;-64
2022/08/27 04:11:35;;;;;;;16.42;10.73;;;18.40;99.90;;;;;;5121627;27;20039;-65
2022/08/27 04:14:04;;;;;;;13.75;9.85;;;18.40;99.90;;;;;;5122437;27;20477;-64
2022/08/27 04:16:47;;;;;;;17.83;10.27;;;18.40;99.90;;;;;;5090064;28;20051;-65
2022/08/27 04:19:18;;;;;;;17.67;10.20;;;18.30;99.90;;;;;;5105354;27;20067;-65
2022/08/27 04:21:50;;;;;;;16.48;10.63;;;18.40;99.90;;;;;;5102980;28;20438;-65
2022/08/27 04:24:17;;;;;;;13.95;10.15;;;18.40;99.90;;;;;;5082962;28;20044;-65
2022/08/27 04:26:46;;;;;;;14.55;9.02;;;18.40;99.90;;;;;;5111735;27;20050;-65
2022/08/27 04:29:13;;;;;;;16.55;10.35;;;18.40;99.90;;;;;;5110414;27;20400;-65
2022/08/27 04:31:42;;;;;;;13.50;10.10;;;18.40;99.90;;;;;;5110512;28;20073;-65
2022/08/27 04:34:09;;;;;;;12.38;9.55;;;18.40;99.90;;;;;;5108394;28;20469;-64
2022/08/27 04:36:36;;;;;;;11.98;9.38;;;18.40;99.90;;;;;;5106290;28;20505;-65
2022/08/27 04:39:04;;;;;;;16.75;9.75;;;18.40;99.90;;;;;;5106481;28;20047;-65
2022/08/27 04:41:32;;;;;;;13.60;10.07;;;18.40;99.90;;;;;;5116705;27;20384;-65
2022/08/27 04:44:05;;;;;;;12.75;10.02;;;18.40;99.90;;;;;;5121394;27;20043;-65
2022/08/27 04:46:36;;;;;;;13.75;10.15;;;18.40;99.90;;;;;;5114913;28;20047;-64
2022/08/27 04:49:10;;;;;;;12.85;9.75;;;18.40;99.90;;;;;;5113522;28;20047;-65
2022/08/27 04:51:38;;;;;;;10.38;8.18;;;18.40;99.90;;;;;;5114087;27;20453;-66
2022/08/27 04:54:07;;;;;;;12.23;8.77;;;18.40;99.90;;;;;;5099239;28;20127;-64
2022/08/27 04:56:35;;;;;;;11.43;8.95;;;18.50;99.90;;;;;;5122136;28;20050;-65
2022/08/27 04:59:05;;;;;;;13.15;8.43;;;18.50;99.90;;;;;;5117624;28;20493;-65
2022/08/27 05:01:33;;;;;;;14.25;8.63;;;18.50;99.90;;;;;;5104605;27;20492;-65
2022/08/27 05:04:00;;;;;;;13.40;9.52;;;18.60;99.90;;;;;;5114252;27;20044;-65
2022/08/27 05:06:27;;;;;;;13.60;8.27;;;18.60;99.90;;;;;;5098394;28;20377;-65
2022/08/27 05:08:55;;;;;;;11.13;8.73;;;18.60;99.90;;;;;;5115534;27;20134;-64
2022/08/27 05:11:25;;;;;;;14.30;8.70;;;18.60;99.90;;;;;;5118949;28;20039;-65
2022/08/27 05:13:53;;;;;;;14.60;9.20;;;18.60;99.90;;;;;;5123926;27;20096;-64
2022/08/27 05:16:22;;;;;;;12.23;8.70;;;18.60;99.90;;;;;;5088085;28;20403;-64
2022/08/27 05:18:51;;;;;;;11.63;8.93;;;18.60;99.90;;;;;;5102468;28;20616;-65
2022/08/27 05:21:29;;;;;;;15.65;8.57;;;18.60;99.90;;;;;;5108685;28;20051;-65
2022/08/27 05:23:58;;;;;;;12.02;8.35;;;18.60;99.90;;;;;;5113472;28;20043;-65
2022/08/27 05:26:27;;;;;;;12.57;8.73;;;18.60;99.90;;;;;;5112115;28;20044;-65
2022/08/27 05:28:54;;;;;;;11.73;7.85;;;18.60;99.90;;;;;;5107019;27;20047;-65
2022/08/27 05:31:22;;;;;;;14.48;8.95;;;18.60;99.90;;;;;;5110090;28;20043;-64
2022/08/27 05:33:49;;;;;;;11.40;8.25;;;18.70;99.90;;;;;;5103504;28;20414;-63
2022/08/27 05:36:25;;;;;;;13.93;9.43;;;18.70;99.90;;;;;;5110990;27;20170;-63
2022/08/27 05:38:54;;;;;;;12.73;8.65;;;18.80;99.90;;;;;;5117459;27;20565;-64
2022/08/27 05:41:24;;;;;;;11.07;8.43;;;18.80;99.90;;;;;;5123835;27;20104;-64
2022/08/27 05:44:03;;;;;;;16.90;9.52;;;18.80;99.90;;;;;;5115186;27;20047;-64
2022/08/27 05:46:50;;;;;;;15.40;10.23;;;18.80;99.90;;;;;;5105695;27;20582;-64
2022/08/27 05:49:17;;;;;;;13.30;9.45;;;18.80;99.90;;;;;;5107160;27;20389;-63
2022/08/27 05:51:45;;;;;;;14.98;9.27;;;18.80;99.90;;;;;;5102775;27;20028;-64
2022/08/27 05:54:18;;;;;;;15.05;9.98;;;18.80;99.90;;;;;;5105204;27;20040;-63
2022/08/27 05:56:48;;;;;;;11.40;9.05;;;18.90;99.90;;;;;;5118344;27;20158;-63
2022/08/27 06:02:04;;;;;;;15.88;10.13;;;18.90;99.90;;;;;;5112884;27;20039;-66
2022/08/27 06:04:32;;;;;;;14.15;10.05;;;18.90;99.90;;;;;;5106617;27;20499;-64
2022/08/27 06:06:59;;;;;;;15.48;9.02;;;18.80;99.90;;;;;;5094028;27;20069;-63
2022/08/27 06:09:28;;;;;;;14.95;10.45;;;18.80;99.90;;;;;;5107968;27;20090;-63
2022/08/27 06:11:57;;;;;;;15.40;10.43;;;18.80;99.90;;;;;;5112541;27;20035;-63
2022/08/27 06:14:25;;;;;;;16.13;11.10;;;18.80;99.90;;;;;;5112806;27;20480;-64
2022/08/27 06:16:52;;;;;;;15.43;10.85;;;18.90;99.90;;;;;;5110743;27;20549;-65
2022/08/27 06:19:20;;;;;;;19.42;10.50;;;18.90;99.90;;;;;;5111959;27;20394;-65
2022/08/27 06:21:48;;;;;;;16.63;11.02;;;18.90;99.90;;;;;;5112816;27;20535;-64
2022/08/27 06:24:35;;;;;;;14.65;11.18;;;18.80;99.90;;;;;;5107875;27;20127;-65
2022/08/27 06:27:02;;;;;;;14.52;10.73;;;18.90;99.90;;;;;;5121832;27;20040;-65
2022/08/27 06:29:30;;;;;;;18.25;11.95;;;19.00;99.90;;;;;;5116856;27;20065;-64
2022/08/27 06:31:57;;;;;;;17.33;11.93;;;19.10;99.90;;;;;;5108660;27;20568;-65
2022/08/27 06:34:25;;;;;;;17.77;12.07;;;19.10;99.90;;;;;;5127677;27;20047;-64
2022/08/27 06:36:53;;;;;;;17.45;11.40;;;19.10;99.90;;;;;;5121974;27;20125;-64
2022/08/27 06:39:20;;;;;;;15.98;10.85;;;19.20;99.90;;;;;;5120894;27;20087;-65
2022/08/27 06:41:49;;;;;;;17.83;12.60;;;19.20;99.90;;;;;;5100298;27;20066;-64
2022/08/27 06:44:20;;;;;;;19.08;11.65;;;19.30;99.90;;;;;;5108403;27;20085;-63
2022/08/27 06:46:48;;;;;;;17.42;11.77;;;19.30;99.90;;;;;;5114076;27;20040;-64
2022/08/27 06:49:15;;;;;;;15.75;11.82;;;19.40;99.90;;;;;;5113705;27;20074;-65
2022/08/27 06:51:45;;;;;;;18.45;12.98;;;19.50;99.90;;;;;;5102234;27;20065;-63
2022/08/27 06:54:14;;;;;;;23.63;15.93;;;19.40;99.90;;;;;;5106243;27;20040;-64
2022/08/27 06:56:43;;;;;;;24.08;17.17;;;19.40;99.90;;;;;;5114533;27;20421;-64
2022/08/27 06:59:14;;;;;;;23.73;13.63;;;19.40;99.90;;;;;;5112919;27;20040;-64
2022/08/27 07:01:45;;;;;;;18.95;13.52;;;19.40;99.90;;;;;;5121073;27;20516;-64
2022/08/27 07:04:18;;;;;;;18.33;13.33;;;19.30;99.90;;;;;;5109000;27;20043;-63
2022/08/27 07:06:45;;;;;;;19.67;14.32;;;19.40;99.90;;;;;;5103946;27;20051;-63
2022/08/27 07:09:13;;;;;;;23.92;14.88;;;19.30;99.90;;;;;;5098690;27;20410;-63
2022/08/27 07:11:40;;;;;;;17.95;12.60;;;19.30;99.90;;;;;;5109945;27;20067;-63
2022/08/27 07:14:08;;;;;;;17.52;13.50;;;19.40;99.90;;;;;;5112274;27;20051;-63
2022/08/27 07:16:36;;;;;;;17.58;12.77;;;19.50;99.90;;;;;;5112294;27;20643;-63
2022/08/27 07:19:07;;;;;;;21.65;14.32;;;19.60;99.90;;;;;;5103292;27;20082;-63
2022/08/27 07:21:35;;;;;;;19.38;14.35;;;19.70;99.90;;;;;;5093045;27;20065;-63
2022/08/27 07:24:04;;;;;;;21.38;14.77;;;19.70;99.90;;;;;;5085906;27;20043;-64
2022/08/27 07:26:37;;;;;;;24.63;15.60;;;19.80;99.90;;;;;;5087500;27;20135;-65
2022/08/27 07:29:07;;;;;;;23.65;15.48;;;19.90;99.90;;;;;;5097870;27;20535;-65
2022/08/27 07:31:35;;;;;;;23.77;14.20;;;19.90;99.90;;;;;;5099327;27;20040;-65
2022/08/27 07:34:04;;;;;;;22.67;15.00;;;20.00;99.90;;;;;;5089976;27;20455;-65
2022/08/27 07:36:33;;;;;;;23.08;15.63;;;20.10;99.90;;;;;;5089413;27;20513;-65
2022/08/27 07:39:00;;;;;;;24.73;14.20;;;20.10;99.90;;;;;;5112683;27;20130;-65
2022/08/27 07:41:30;;;;;;;21.40;14.45;;;20.20;99.90;;;;;;5119853;27;20060;-67
2022/08/27 07:46:57;;;;;;;22.60;14.98;;;20.30;99.90;;;;;;5104008;27;20688;-66
2022/08/27 07:49:27;;;;;;;26.88;15.73;;;20.40;99.90;;;;;;5110706;27;20493;-65
2022/08/27 07:51:54;;;;;;;23.00;16.00;;;20.50;99.90;;;;;;5110963;27;20565;-66
2022/08/27 07:54:22;;;;;;;25.35;16.88;;;20.60;99.90;;;;;;5122823;27;20035;-65
2022/08/27 07:56:51;;;;;;;24.90;15.90;;;20.60;99.90;;;;;;5126693;27;20482;-64
2022/08/27 07:59:23;;;;;;;23.90;16.58;;;20.60;99.90;;;;;;5127862;27;20058;-64
2022/08/27 08:01:54;;;;;;;25.73;16.88;;;20.60;99.90;;;;;;5120531;27;20046;-64
2022/08/27 08:04:22;;;;;;;26.88;17.85;;;20.50;99.90;;;;;;5095891;27;20521;-65
2022/08/27 08:06:50;;;;;;;25.40;18.08;;;20.40;99.90;;;;;;5092927;27;20159;-65
2022/08/27 08:09:20;;;;;;;27.55;17.55;;;20.60;99.90;;;;;;5119065;27;20144;-65
2022/08/27 08:11:49;;;;;;;24.85;16.33;;;20.60;99.90;;;;;;5094002;28;20543;-65
2022/08/27 08:14:17;;;;;;;27.42;16.65;;;20.80;99.90;;;;;;5120111;27;20053;-65
2022/08/27 08:16:45;;;;;;;23.67;17.02;;;21.00;99.90;;;;;;5095449;27;20039;-65
2022/08/27 08:19:12;;;;;;;25.55;17.33;;;21.10;99.90;;;;;;5105121;28;20047;-65
2022/08/27 08:21:40;;;;;;;22.77;16.00;;;21.30;99.90;;;;;;5108707;27;20074;-65
2022/08/27 08:24:07;;;;;;;23.98;16.23;;;21.40;99.90;;;;;;5114183;27;20067;-65
2022/08/27 08:26:35;;;;;;;27.80;16.55;;;21.40;99.90;;;;;;5115070;27;20051;-65
2022/08/27 08:29:03;;;;;;;22.95;15.45;;;21.40;99.90;;;;;;5115268;27;20050;-65
2022/08/27 08:31:31;;;;;;;25.23;16.45;;;21.40;99.90;;;;;;5101197;28;20518;-65
2022/08/27 08:33:59;;;;;;;25.25;16.25;;;21.40;99.90;;;;;;5108809;27;20108;-65
2022/08/27 08:36:26;;;;;;;26.90;17.85;;;21.40;99.90;;;;;;5100759;27;20066;-65
2022/08/27 08:38:54;;;;;;;25.83;18.45;;;21.50;99.90;;;;;;5115958;28;20119;-65
2022/08/27 08:41:27;;;;;;;25.67;18.42;;;21.60;99.90;;;;;;5125559;27;20077;-65
2022/08/27 08:43:58;;;;;;;22.35;15.75;;;21.60;99.90;;;;;;5124647;27;20039;-65
2022/08/27 08:46:57;;;;;;;20.55;15.23;;;21.70;99.90;;;;;;5117822;28;20110;-65
2022/08/27 08:49:54;;;;;;;23.83;14.57;;;21.70;99.90;;;;;;5092632;28;20058;-65
2022/08/27 08:52:34;;;;;;;21.65;14.65;;;21.70;99.90;;;;;;5097312;28;20501;-65
2022/08/27 08:55:13;;;;;;;20.73;14.98;;;21.90;99.90;;;;;;5111896;28;20089;-65
2022/08/27 08:58:16;;;;;;;23.55;15.80;;;22.00;99.90;;;;;;5114251;28;20044;-65
2022/08/27 09:00:47;;;;;;;20.20;14.73;;;22.20;99.90;;;;;;5102772;28;20072;-65
2022/08/27 09:03:15;;;;;;;21.65;15.10;;;22.30;99.90;;;;;;5114952;27;20126;-65
2022/08/27 09:05:49;;;;;;;21.08;14.40;;;22.50;99.90;;;;;;5101543;28;20542;-65
2022/08/27 09:08:35;;;;;;;17.83;13.13;;;22.50;99.90;;;;;;5121025;27;20058;-65
2022/08/27 09:11:26;;;;;;;15.97;12.67;;;22.50;99.90;;;;;;5115444;27;20092;-65
2022/08/27 09:14:13;;;;;;;20.30;12.82;;;22.70;99.90;;;;;;5124949;27;20039;-65
2022/08/27 09:16:40;;;;;;;16.67;12.32;;;22.80;99.90;;;;;;5123168;27;20087;-65
2022/08/27 09:19:08;;;;;;;16.10;11.88;;;22.90;99.90;;;;;;5107489;27;20054;-66
2022/08/27 09:21:52;;;;;;;13.18;10.32;;;22.90;99.90;;;;;;5120385;27;20047;-65
2022/08/27 09:24:39;;;;;;;13.93;10.35;;;23.00;99.90;;;;;;5129469;27;20497;-65
2022/08/27 09:27:11;;;;;;;13.57;10.85;;;23.20;99.90;;;;;;5131927;27;20039;-65
2022/08/27 09:29:55;;;;;;;19.63;14.18;;;22.90;99.90;;;;;;5115735;27;20039;-65
2022/08/27 09:32:30;;;;;;;21.40;14.43;;;22.60;99.90;;;;;;5108931;28;20069;-66
2022/08/27 09:35:01;;;;;;;19.58;13.40;;;22.60;99.90;;;;;;5109407;28;20090;-64
2022/08/27 09:37:31;;;;;;;17.23;12.17;;;22.60;99.90;;;;;;5105201;27;20098;-64
2022/08/27 09:40:10;;;;;;;;;;;22.60;99.90;;;;;;5094129;27;20093;-64
2022/08/27 09:42:47;;;;;;;15.88;11.27;;;22.70;99.90;;;;;;5111557;27;19939;-63
2022/08/27 09:45:26;;;;;;;15.98;12.23;;;22.80;99.90;;;;;;5104733;27;20575;-64
2022/08/27 09:48:01;;;;;;;14.18;10.98;;;22.80;99.90;;;;;;5105789;27;20147;-64
2022/08/27 09:50:43;;;;;;;13.85;11.55;;;22.90;99.90;;;;;;5101023;27;20419;-64
2022/08/27 09:53:46;;;;;;;18.60;12.13;;;23.30;99.90;;;;;;5104938;27;20078;-64
2022/08/27 09:56:35;;;;;;;15.90;12.50;;;23.50;99.90;;;;;;5114950;27;20516;-64
2022/08/27 09:59:09;;;;;;;18.85;13.73;;;23.50;99.90;;;;;;5115547;27;20074;-65
2022/08/27 10:01:48;;;;;;;18.33;14.32;;;23.50;99.90;;;;;;5112603;27;20070;-64
2022/08/27 10:04:22;;;;;;;16.05;13.10;;;23.60;99.90;;;;;;5110449;27;20054;-64
2022/08/27 10:06:50;;;;;;;18.92;13.65;;;23.50;99.90;;;;;;5111303;27;20055;-64
2022/08/27 10:09:37;;;;;;;16.95;12.68;;;23.60;99.90;;;;;;5115009;27;20677;-64
2022/08/27 10:12:21;;;;;;;19.73;13.45;;;23.70;99.90;;;;;;5115357;27;20040;-64
2022/08/27 10:14:59;;;;;;;17.00;12.43;;;23.60;99.90;;;;;;5121430;27;20042;-64
2022/08/27 10:17:35;;;;;;;18.15;13.63;;;24.10;99.90;;;;;;5102312;27;20127;-67
2022/08/27 10:20:20;;;;;;;17.00;12.35;;;24.20;99.90;;;;;;5112936;27;20051;-65
2022/08/27 10:23:05;;;;;;;17.63;12.32;;;24.10;99.90;;;;;;5111082;27;20036;-65
2022/08/27 10:26:02;;;;;;;15.43;11.70;;;24.10;99.90;;;;;;5104768;27;20497;-64
2022/08/27 10:29:05;;;;;;;12.98;11.57;;;24.50;99.90;;;;;;5111732;27;20138;-68
2022/08/27 10:32:08;;;;;;;13.52;11.13;;;24.70;99.90;;;;;;5104661;27;20051;-65
2022/08/27 10:34:44;;;;;;;10.65;9.48;;;25.40;99.90;;;;;;5060700;27;20139;-65
2022/08/27 10:37:30;;;;;;;10.07;9.05;;;25.70;99.90;;;;;;5097945;27;20494;-64
2022/08/27 10:40:29;;;;;;;8.80;7.90;;;25.80;99.90;;;;;;5109937;27;20493;-66
2022/08/27 10:43:00;;;;;;;10.18;7.60;;;25.90;99.90;;;;;;5101675;27;20047;-65
2022/08/27 10:46:06;;;;;;;9.77;7.75;;;25.70;99.90;;;;;;5122247;27;20514;-65
2022/08/27 10:48:39;;;;;;;7.70;6.90;;;25.70;99.90;;;;;;5111156;27;20130;-65
2022/08/27 10:51:17;;;;;;;7.68;6.88;;;26.20;99.90;;;;;;5107851;27;20039;-64
2022/08/27 10:54:08;;;;;;;8.00;6.95;;;26.10;99.90;;;;;;5103686;27;20071;-65
2022/08/27 10:56:44;;;;;;;9.27;6.90;;;26.20;99.90;;;;;;5090515;27;20385;-63
2022/08/27 10:59:31;;;;;;;7.68;6.45;;;26.40;99.90;;;;;;5104739;27;20459;-63
2022/08/27 11:02:04;;;;;;;6.57;5.97;;;26.40;99.90;;;;;;5099777;27;20565;-65
2022/08/27 11:04:40;;;;;;;7.13;6.40;;;26.40;99.90;;;;;;5116102;27;20105;-64
2022/08/27 11:07:24;;;;;;;7.10;6.22;;;26.60;99.90;;;;;;5097727;27;20472;-66
2022/08/27 11:09:53;;;;;;;8.98;6.80;;;26.50;99.90;;;;;;5108355;27;20374;-64
2022/08/27 11:12:41;;;;;;;7.72;6.65;;;26.50;99.90;;;;;;5108434;27;20039;-65
2022/08/27 11:15:19;;;;;;;7.32;6.28;;;26.30;99.90;;;;;;5099884;27;20036;-65
2022/08/27 11:18:28;;;;;;;8.80;7.03;;;26.90;99.90;;;;;;5108969;27;20689;-65
2022/08/27 11:21:21;;;;;;;7.60;6.38;;;26.90;99.90;;;;;;5086264;27;20079;-65
2022/08/27 11:24:36;;;;;;;7.63;6.90;;;26.80;99.90;;;;;;5106180;27;20448;-64
2022/08/27 11:27:07;;;;;;;8.40;6.85;;;26.30;99.90;;;;;;5096068;27;20039;-64
2022/08/27 11:30:03;;;;;;;7.97;7.07;;;26.90;99.90;;;;;;5111089;27;20435;-64
2022/08/27 11:32:59;;;;;;;10.02;6.53;;;26.90;99.90;;;;;;5103688;27;20414;-64
2022/08/27 11:35:56;;;;;;;8.65;7.03;;;26.90;99.90;;;;;;5099882;27;20067;-64
2022/08/27 11:38:52;;;;;;;9.02;7.13;;;27.20;99.90;;;;;;5120418;27;20076;-65
2022/08/27 11:41:44;;;;;;;8.15;7.32;;;28.10;99.90;;;;;;5108078;28;20524;-64
2022/08/27 11:44:12;;;;;;;;;;;28.10;99.90;;;;;;5109657;28;20444;-64
2022/08/27 11:46:44;;;;;;;9.40;7.50;;;28.00;99.90;;;;;;5108887;28;20289;-64
2022/08/27 11:49:28;;;;;;;7.30;6.55;;;28.30;99.90;;;;;;5101292;27;20040;-64
2022/08/27 11:52:06;;;;;;;8.18;6.57;;;29.10;99.90;;;;;;5109390;27;20038;-64
2022/08/27 11:54:51;;;;;;;7.05;6.35;;;29.60;99.90;;;;;;5103927;27;20032;-64
2022/08/27 11:57:31;;;;;;;9.98;7.43;;;29.60;99.90;;;;;;5111265;27;20046;-64
2022/08/27 12:00:25;;;;;;;8.95;6.93;;;29.40;99.90;;;;;;5111298;27;20047;-65
2022/08/27 12:02:58;;;;;;;7.20;6.50;;;29.20;99.90;;;;;;5114886;27;20048;-64
2022/08/27 12:05:40;;;;;;;7.47;5.95;;;29.00;99.90;;;;;;5098952;28;20044;-64
2022/08/27 12:08:22;;;;;;;6.80;6.20;;;28.80;99.90;;;;;;5107448;27;20127;-64
2022/08/27 12:10:59;;;;;;;6.80;6.15;;;29.10;99.90;;;;;;5095788;28;20562;-64
2022/08/27 12:13:37;;;;;;;6.65;6.05;;;29.40;99.90;;;;;;5104767;28;20043;-64
2022/08/27 12:16:52;;;;;;;7.50;6.80;;;29.70;99.90;;;;;;5093781;28;20063;-64
2022/08/27 12:19:29;;;;;;;7.13;6.45;;;29.40;99.90;;;;;;5095763;28;20059;-64
2022/08/27 12:22:02;;;;;;;6.30;5.70;;;29.30;99.90;;;;;;5095064;28;20413;-65
2022/08/27 12:24:53;;;;;;;6.75;6.05;;;29.20;99.90;;;;;;5109577;27;20558;-63
2022/08/27 12:27:25;;;;;;;6.57;5.80;;;29.70;99.90;;;;;;5098384;27;20047;-63
2022/08/27 12:30:14;;;;;;;7.18;6.03;;;30.20;99.90;;;;;;5111635;27;20569;-63
2022/08/27 12:32:45;;;;;;;6.75;6.05;;;30.70;99.90;;;;;;5093081;28;20074;-63
2022/08/27 12:35:47;;;;;;;6.85;6.25;;;31.10;99.90;;;;;;5092724;28;20545;-63
2022/08/27 12:38:33;;;;;;;6.38;5.78;;;30.90;99.90;;;;;;5109172;27;20040;-64
2022/08/27 12:41:07;;;;;;;6.13;5.55;;;30.50;99.90;;;;;;5114167;27;20123;-63
2022/08/27 12:43:37;;;;;;;6.30;5.70;;;30.10;99.90;;;;;;5114161;27;20408;-63
2022/08/27 12:46:14;;;;;;;6.90;5.93;;;30.30;99.90;;;;;;5121741;27;20776;-62
2022/08/27 12:48:51;;;;;;;7.10;6.40;;;30.50;99.90;;;;;;5125654;28;20122;-64
2022/08/27 12:51:24;;;;;;;5.90;5.30;;;30.20;99.90;;;;;;5108039;28;20043;-63
2022/08/27 12:54:11;;;;;;;6.10;5.60;;;30.40;99.90;;;;;;5096804;28;20032;-63
2022/08/27 12:56:50;;;;;;;5.60;5.10;;;30.20;99.90;;;;;;5108280;28;20043;-63
2022/08/27 12:59:36;;;;;;;5.45;4.95;;;31.30;99.90;;;;;;5115805;28;20043;-63
2022/08/27 13:02:28;;;;;;;5.53;5.03;;;30.80;99.90;;;;;;5118947;28;20096;-63
2022/08/27 13:05:00;;;;;;;6.45;5.78;;;31.50;99.90;;;;;;5100000;28;20113;-64
2022/08/27 13:07:30;;;;;;;5.72;5.22;;;31.50;99.90;;;;;;5100418;28;20196;-63
2022/08/27 13:10:16;;;;;;;5.75;5.25;;;31.20;99.90;;;;;;5101813;28;20047;-64
2022/08/27 13:12:46;;;;;;;6.10;5.50;;;30.40;99.90;;;;;;5103939;28;20047;-62